Time;durP1;ratioP1;P1;durP2;ratioP2;P2;SDS_P1;SDS_P2;PMS_P1;PMS_P2;Temp;Humidity;BMP_temperature;BMP_pressure;BME280_temperature;BME280_humidity;BME280_pressure;Samples;Min_cycle;Max_cycle;Signal;HPM_P1;HPM_P2
2023/09/03 00:00:00;;;;;;;11.30;10.30;;;16.20;77.20;;;;;;6200110;28;20242;-80
2023/09/03 00:03:06;;;;;;;10.77;9.97;;;16.20;77.10;;;;;;6208301;28;20288;-84
2023/09/03 00:06:09;;;;;;;10.47;9.77;;;16.20;77.10;;;;;;6204129;28;20248;-84
2023/09/03 00:09:12;;;;;;;10.67;9.90;;;16.30;77.10;;;;;;6227502;28;20239;-82
2023/09/03 00:12:15;;;;;;;10.00;9.30;;;16.30;77.00;;;;;;6203300;28;20275;-84
2023/09/03 00:15:23;;;;;;;10.50;9.70;;;16.40;77.00;;;;;;6213637;28;20733;-84
2023/09/03 00:18:28;;;;;;;11.00;10.20;;;16.40;77.00;;;;;;6215511;28;20330;-84
2023/09/03 00:21:31;;;;;;;10.53;9.80;;;16.40;76.90;;;;;;6215677;28;20250;-82
2023/09/03 00:24:34;;;;;;;9.67;9.00;;;16.40;76.80;;;;;;6202972;28;20349;-83
2023/09/03 00:27:38;;;;;;;9.73;9.10;;;16.40;76.80;;;;;;6206168;28;20727;-84
2023/09/03 00:30:41;;;;;;;9.30;8.70;;;16.40;76.80;;;;;;6207718;28;20239;-82
2023/09/03 00:33:45;;;;;;;9.90;9.30;;;16.40;76.80;;;;;;6206079;28;20236;-85
2023/09/03 00:36:49;;;;;;;9.33;8.73;;;16.40;76.70;;;;;;6205873;28;20612;-85
2023/09/03 00:39:52;;;;;;;10.37;9.47;;;16.40;76.70;;;;;;6196932;28;20767;-84
2023/09/03 00:42:55;;;;;;;8.03;7.63;;;16.50;76.70;;;;;;6212115;28;20711;-81
2023/09/03 00:46:02;;;;;;;9.23;8.63;;;16.50;76.70;;;;;;6199076;28;20244;-83
2023/09/03 00:49:06;;;;;;;9.40;8.80;;;16.50;76.60;;;;;;6206168;28;20239;-82
2023/09/03 00:52:10;;;;;;;8.67;8.10;;;16.50;76.60;;;;;;6213193;28;20747;-81
2023/09/03 00:55:13;;;;;;;9.23;8.57;;;16.50;76.50;;;;;;6204723;28;20861;-85
2023/09/03 00:58:17;;;;;;;8.40;8.00;;;16.60;76.40;;;;;;6206359;28;20250;-82
2023/09/03 01:01:21;;;;;;;7.67;7.27;;;16.60;76.30;;;;;;6212882;28;20239;-85
2023/09/03 01:04:26;;;;;;;7.43;7.03;;;16.60;76.20;;;;;;6205093;28;20244;-85
2023/09/03 01:07:30;;;;;;;9.73;9.03;;;16.60;76.10;;;;;;6205490;28;20232;-84
2023/09/03 01:10:38;;;;;;;10.30;9.50;;;16.60;76.00;;;;;;6207272;28;20267;-83
2023/09/03 01:13:51;;;;;;;7.87;7.37;;;16.60;75.80;;;;;;6210673;28;20235;-83
2023/09/03 01:16:59;;;;;;;10.77;9.80;;;16.70;75.70;;;;;;6212860;28;20255;-83
2023/09/03 01:20:13;;;;;;;9.33;8.73;;;16.70;75.20;;;;;;6204622;28;20258;-84
2023/09/03 01:23:30;;;;;;;8.40;7.90;;;16.80;74.70;;;;;;6214634;28;20259;-82
2023/09/03 01:26:45;;;;;;;9.27;8.57;;;16.80;74.60;;;;;;6205372;28;20321;-82
2023/09/03 01:29:51;;;;;;;8.27;7.67;;;16.80;74.40;;;;;;6213405;28;20243;-84
2023/09/03 01:32:55;;;;;;;7.90;7.50;;;16.80;74.30;;;;;;6196692;28;20247;-85
2023/09/03 01:35:59;;;;;;;9.63;8.90;;;16.90;74.30;;;;;;6205434;28;20243;-85
2023/09/03 01:39:03;;;;;;;10.63;9.57;;;16.90;74.10;;;;;;6204480;28;20266;-83
2023/09/03 01:42:06;;;;;;;11.60;10.40;;;16.90;74.00;;;;;;6203677;28;20238;-84
2023/09/03 01:45:11;;;;;;;9.23;8.43;;;16.90;74.00;;;;;;6211753;28;20235;-86
2023/09/03 01:48:21;;;;;;;9.40;8.50;;;16.90;74.10;;;;;;6200028;28;20630;-82
2023/09/03 01:51:32;;;;;;;7.40;7.10;;;16.90;74.00;;;;;;6203273;28;20231;-84
2023/09/03 01:54:39;;;;;;;8.50;7.90;;;16.90;73.90;;;;;;6200907;28;20611;-83
2023/09/03 01:57:49;;;;;;;9.13;8.37;;;16.90;73.90;;;;;;6199929;28;20247;-83
2023/09/03 02:00:56;;;;;;;8.60;8.00;;;16.90;73.80;;;;;;6195410;28;20257;-83
2023/09/03 02:04:00;;;;;;;8.20;7.80;;;16.90;73.80;;;;;;6211558;28;20293;-84
2023/09/03 02:07:04;;;;;;;7.23;6.83;;;16.80;73.70;;;;;;6202864;28;20374;-84
2023/09/03 02:10:08;;;;;;;7.27;6.77;;;16.80;73.80;;;;;;6195304;28;20318;-83
2023/09/03 02:13:11;;;;;;;6.83;6.43;;;16.70;73.70;;;;;;6204291;28;20231;-83
2023/09/03 02:16:16;;;;;;;8.37;7.83;;;16.60;73.80;;;;;;6198864;28;20239;-83
2023/09/03 02:19:19;;;;;;;8.00;7.50;;;16.60;74.10;;;;;;6201026;28;20735;-84
2023/09/03 02:22:23;;;;;;;7.40;7.00;;;16.50;74.10;;;;;;6204723;28;20247;-84
2023/09/03 02:25:26;;;;;;;8.17;7.70;;;16.50;74.10;;;;;;6200177;28;20243;-82
2023/09/03 02:28:29;;;;;;;7.83;7.33;;;16.50;74.30;;;;;;6210289;28;20254;-82
2023/09/03 02:31:33;;;;;;;8.10;7.53;;;16.40;74.30;;;;;;6205489;28;21422;-83
2023/09/03 02:34:36;;;;;;;7.13;6.73;;;16.40;74.30;;;;;;6210900;28;20238;-83
2023/09/03 02:37:39;;;;;;;7.50;7.00;;;16.40;74.50;;;;;;6199501;28;20323;-84
2023/09/03 02:40:43;;;;;;;6.90;6.50;;;16.40;74.50;;;;;;6211596;28;20263;-83
2023/09/03 02:43:46;;;;;;;6.73;6.43;;;16.40;74.60;;;;;;6212543;28;20567;-81
2023/09/03 02:46:50;;;;;;;7.33;7.03;;;16.30;74.70;;;;;;6204911;28;20259;-84
2023/09/03 02:49:53;;;;;;;7.63;7.23;;;16.20;74.80;;;;;;6216036;28;20239;-84
2023/09/03 02:52:56;;;;;;;9.23;8.53;;;16.20;74.90;;;;;;6215257;28;20238;-83
2023/09/03 02:56:00;;;;;;;7.77;7.27;;;16.10;75.00;;;;;;6208332;28;20228;-84
2023/09/03 02:59:03;;;;;;;9.63;8.73;;;16.10;75.10;;;;;;6206695;28;20274;-83
2023/09/03 03:02:07;;;;;;;8.90;8.20;;;16.10;75.40;;;;;;6215886;28;20244;-82
2023/09/03 03:05:11;;;;;;;9.40;8.80;;;16.00;75.30;;;;;;6199678;28;20358;-82
2023/09/03 03:08:14;;;;;;;9.30;8.70;;;16.00;75.40;;;;;;6209468;28;20302;-83
2023/09/03 03:11:18;;;;;;;8.30;7.77;;;16.00;75.40;;;;;;6213754;28;20235;-81
2023/09/03 03:14:22;;;;;;;7.30;6.90;;;16.00;75.50;;;;;;6205854;28;20239;-82
2023/09/03 03:17:26;;;;;;;9.20;8.53;;;15.90;75.50;;;;;;6213159;28;20825;-82
2023/09/03 03:20:29;;;;;;;8.80;8.20;;;15.90;75.50;;;;;;6213493;28;20231;-83
2023/09/03 03:23:33;;;;;;;9.50;8.90;;;15.90;75.50;;;;;;6213308;28;20262;-82
2023/09/03 03:26:37;;;;;;;9.13;8.47;;;15.90;75.50;;;;;;6211663;28;20240;-83
2023/09/03 03:29:40;;;;;;;9.30;8.60;;;15.80;75.50;;;;;;6200627;28;20240;-83
2023/09/03 03:32:45;;;;;;;10.30;9.60;;;15.90;75.50;;;;;;6190746;28;20247;-83
2023/09/03 03:35:49;;;;;;;9.43;8.77;;;15.90;75.50;;;;;;6209179;28;20263;-84
2023/09/03 03:38:52;;;;;;;10.40;9.70;;;15.90;75.40;;;;;;6208873;28;20240;-83
2023/09/03 03:41:55;;;;;;;10.27;9.27;;;15.90;75.10;;;;;;6203774;28;20438;-84
2023/09/03 03:44:58;;;;;;;10.80;9.93;;;15.90;75.00;;;;;;6218433;28;20242;-81
2023/09/03 03:48:03;;;;;;;10.47;9.73;;;15.90;74.80;;;;;;6223899;28;20274;-80
2023/09/03 03:51:06;;;;;;;10.10;9.40;;;16.00;74.80;;;;;;6223710;28;20309;-81
2023/09/03 03:54:09;;;;;;;12.33;10.13;;;15.90;74.70;;;;;;6230014;28;20253;-81
2023/09/03 03:57:12;;;;;;;10.83;10.03;;;15.90;74.60;;;;;;6221659;28;20306;-82
2023/09/03 04:00:16;;;;;;;11.03;10.17;;;15.90;74.60;;;;;;6223926;28;20274;-80
2023/09/03 04:03:21;;;;;;;10.77;9.93;;;15.90;74.60;;;;;;6231237;28;20242;-79
2023/09/03 04:06:27;;;;;;;10.60;9.70;;;15.80;74.60;;;;;;6232739;28;20251;-81
2023/09/03 04:09:30;;;;;;;10.93;10.00;;;15.80;74.60;;;;;;6212266;28;20322;-79
2023/09/03 04:12:33;;;;;;;10.73;9.93;;;15.80;74.40;;;;;;6204783;28;1188358;-81
2023/09/03 04:15:38;;;;;;;9.97;9.37;;;15.80;74.40;;;;;;6216754;28;20239;-80
2023/09/03 04:18:43;;;;;;;9.63;8.93;;;15.80;74.40;;;;;;6223464;28;20765;-82
2023/09/03 04:21:46;;;;;;;9.70;8.90;;;15.70;74.40;;;;;;6219128;28;20764;-82
2023/09/03 04:24:49;;;;;;;9.53;8.80;;;15.70;74.40;;;;;;6206939;28;20459;-82
2023/09/03 04:27:52;;;;;;;9.77;9.07;;;15.60;74.40;;;;;;6237249;28;20258;-80
2023/09/03 04:30:57;;;;;;;10.00;9.23;;;15.60;74.60;;;;;;6221552;28;20298;-80
2023/09/03 04:34:02;;;;;;;10.07;9.33;;;15.60;74.60;;;;;;6208842;28;20246;-80
2023/09/03 04:37:05;;;;;;;9.27;8.57;;;15.50;74.80;;;;;;6223157;28;20767;-80
2023/09/03 04:40:09;;;;;;;8.83;8.20;;;15.50;74.80;;;;;;6216577;28;20232;-81
2023/09/03 04:43:13;;;;;;;8.63;7.97;;;15.50;74.80;;;;;;6206135;28;20254;-82
2023/09/03 04:46:16;;;;;;;9.03;8.23;;;15.50;74.90;;;;;;6222841;28;20240;-80
2023/09/03 04:49:20;;;;;;;8.30;7.67;;;15.40;75.00;;;;;;6212353;28;20252;-80
2023/09/03 04:52:25;;;;;;;8.00;7.50;;;15.40;75.00;;;;;;6214538;28;20235;-81
2023/09/03 04:55:33;;;;;;;7.30;6.87;;;15.50;74.90;;;;;;6216175;28;20287;-80
2023/09/03 04:58:36;;;;;;;8.27;7.60;;;15.40;75.00;;;;;;6214564;28;20259;-80
2023/09/03 05:01:39;;;;;;;8.33;7.57;;;15.40;75.10;;;;;;6225451;28;20287;-81
2023/09/03 05:04:43;;;;;;;7.67;7.03;;;15.40;75.00;;;;;;6224504;28;20386;-80
2023/09/03 05:07:47;;;;;;;7.83;7.33;;;15.40;75.10;;;;;;6222782;28;20236;-82
2023/09/03 05:10:50;;;;;;;8.23;7.07;;;15.40;75.10;;;;;;6219040;28;20240;-80
2023/09/03 05:13:53;;;;;;;8.40;7.60;;;15.40;75.10;;;;;;6220586;28;20330;-82
2023/09/03 05:16:56;;;;;;;9.07;7.53;;;15.40;75.20;;;;;;6211491;28;20314;-82
2023/09/03 05:20:01;;;;;;;8.60;7.90;;;15.40;75.00;;;;;;6212129;28;20261;-82
2023/09/03 05:23:06;;;;;;;7.90;7.33;;;15.40;75.00;;;;;;6211315;28;20239;-81
2023/09/03 05:26:09;;;;;;;7.50;6.97;;;15.40;75.00;;;;;;6206688;28;20261;-82
2023/09/03 05:29:13;;;;;;;7.70;6.90;;;15.40;75.00;;;;;;6213940;28;20243;-80
2023/09/03 05:32:16;;;;;;;7.77;7.13;;;15.50;75.00;;;;;;6204592;28;20254;-82
2023/09/03 05:35:21;;;;;;;7.07;6.67;;;15.50;74.70;;;;;;6193393;28;20235;-84
2023/09/03 05:38:24;;;;;;;9.27;8.43;;;15.60;74.70;;;;;;6208075;28;20235;-81
2023/09/03 05:41:27;;;;;;;7.47;6.63;;;15.60;74.50;;;;;;6203772;28;20274;-82
2023/09/03 05:44:31;;;;;;;8.13;7.40;;;15.60;74.70;;;;;;6193201;28;20262;-80
2023/09/03 05:47:34;;;;;;;6.90;6.40;;;15.60;74.70;;;;;;6195998;28;20243;-81
2023/09/03 05:50:39;;;;;;;6.77;6.07;;;15.60;74.60;;;;;;6198892;28;20242;-83
2023/09/03 05:53:42;;;;;;;7.13;6.63;;;15.60;74.70;;;;;;6208702;28;20297;-83
2023/09/03 05:56:45;;;;;;;7.73;6.90;;;15.70;74.40;;;;;;6202328;28;20250;-83
2023/09/03 05:59:51;;;;;;;7.43;6.77;;;15.70;74.60;;;;;;6229326;28;20242;-83
2023/09/03 06:02:54;;;;;;;6.97;6.57;;;15.80;74.60;;;;;;6237994;28;20232;-83
2023/09/03 06:06:02;;;;;;;8.17;7.33;;;15.80;74.40;;;;;;6237441;28;20255;-84
2023/09/03 06:09:06;;;;;;;7.93;7.17;;;15.80;74.20;;;;;;6237232;28;20308;-80
2023/09/03 06:12:09;;;;;;;7.07;6.47;;;15.80;74.30;;;;;;6243343;28;20235;-80
2023/09/03 06:15:12;;;;;;;8.13;7.57;;;15.90;74.10;;;;;;6217243;28;20240;-81
2023/09/03 06:18:16;;;;;;;7.10;6.60;;;16.00;74.00;;;;;;6204581;28;20706;-83
2023/09/03 06:21:20;;;;;;;8.20;6.77;;;16.20;73.80;;;;;;6206087;28;20235;-82
2023/09/03 06:24:24;;;;;;;6.17;5.67;;;16.40;73.10;;;;;;6208233;28;20235;-85
2023/09/03 06:27:29;;;;;;;6.07;5.53;;;16.60;72.50;;;;;;6209680;28;20262;-83
2023/09/03 06:30:33;;;;;;;5.50;5.00;;;16.80;71.90;;;;;;6211089;28;20341;-84
2023/09/03 06:33:36;;;;;;;5.37;5.00;;;16.90;71.70;;;;;;6191407;28;20646;-82
2023/09/03 06:36:41;;;;;;;5.63;5.23;;;16.90;71.70;;;;;;6206345;28;20239;-83
2023/09/03 06:39:47;;;;;;;5.00;4.60;;;16.90;71.50;;;;;;6203939;28;20773;-82
2023/09/03 06:42:50;;;;;;;5.30;4.80;;;16.80;71.50;;;;;;6207019;28;20327;-83
2023/09/03 06:45:53;;;;;;;5.00;4.73;;;16.60;71.70;;;;;;6200732;28;20326;-81
2023/09/03 06:48:56;;;;;;;6.20;4.90;;;16.60;72.40;;;;;;6200197;28;20294;-81
2023/09/03 06:52:01;;;;;;;5.40;5.00;;;16.60;72.20;;;;;;6209193;28;20263;-83
2023/09/03 06:55:04;;;;;;;5.93;5.50;;;16.70;71.80;;;;;;6221551;28;20243;-83
2023/09/03 06:58:08;;;;;;;5.57;5.17;;;16.90;71.50;;;;;;6197575;28;20274;-82
2023/09/03 07:01:11;;;;;;;5.93;5.17;;;16.90;71.10;;;;;;6200533;28;20243;-83
2023/09/03 07:04:14;;;;;;;5.60;5.10;;;16.90;71.10;;;;;;6213342;28;20303;-83
2023/09/03 07:07:19;;;;;;;6.00;5.30;;;17.00;70.90;;;;;;6213997;28;20274;-81
2023/09/03 07:10:22;;;;;;;5.77;5.30;;;17.10;70.40;;;;;;6196094;28;20258;-82
2023/09/03 07:13:26;;;;;;;4.93;4.60;;;17.20;70.00;;;;;;6205817;28;20633;-81
2023/09/03 07:16:29;;;;;;;4.67;4.47;;;17.30;69.60;;;;;;6212278;28;20247;-82
2023/09/03 07:19:33;;;;;;;4.60;4.20;;;17.50;69.30;;;;;;6214682;28;20251;-82
2023/09/03 07:22:38;;;;;;;3.40;3.27;;;17.60;68.60;;;;;;6197847;28;20242;-82
2023/09/03 07:25:41;;;;;;;4.53;4.13;;;17.80;67.70;;;;;;6202762;28;20671;-81
2023/09/03 07:28:44;;;;;;;4.63;4.23;;;17.80;67.40;;;;;;6207278;28;20641;-81
2023/09/03 07:31:51;;;;;;;5.67;4.10;;;17.70;67.50;;;;;;6207208;28;20246;-82
2023/09/03 07:34:54;;;;;;;4.30;3.90;;;17.80;67.60;;;;;;6212264;28;20235;-82
2023/09/03 07:37:59;;;;;;;5.17;4.63;;;17.60;67.80;;;;;;6206609;28;20239;-80
2023/09/03 07:41:02;;;;;;;4.47;4.27;;;17.50;67.90;;;;;;6213578;28;20239;-82
2023/09/03 07:44:07;;;;;;;4.40;4.13;;;17.50;68.20;;;;;;6199450;28;20262;-83
2023/09/03 07:47:10;;;;;;;4.93;4.63;;;17.50;68.20;;;;;;6214080;28;21128;-82
2023/09/03 07:50:13;;;;;;;4.80;4.40;;;17.70;67.90;;;;;;6211940;28;20239;-83
2023/09/03 07:53:18;;;;;;;5.50;4.40;;;17.60;67.50;;;;;;6215525;28;20239;-83
2023/09/03 07:56:22;;;;;;;4.43;4.10;;;17.70;67.00;;;;;;6215550;28;20235;-83
2023/09/03 07:59:34;;;;;;;4.50;4.07;;;17.80;66.90;;;;;;6199194;28;20349;-84
2023/09/03 08:02:38;;;;;;;3.77;3.57;;;18.00;66.50;;;;;;6198817;28;20247;-82
2023/09/03 08:05:41;;;;;;;5.77;4.07;;;18.30;65.70;;;;;;6207715;28;20610;-82
2023/09/03 08:08:53;;;;;;;3.70;3.40;;;18.30;65.00;;;;;;6213095;28;20343;-81
2023/09/03 08:11:56;;;;;;;4.03;3.63;;;18.40;64.10;;;;;;6208957;28;20625;-82
2023/09/03 08:15:00;;;;;;;6.90;3.40;;;18.50;64.10;;;;;;6203735;28;20243;-83
2023/09/03 08:18:03;;;;;;;6.17;4.10;;;18.40;64.00;;;;;;6209754;28;20328;-83
2023/09/03 08:21:07;;;;;;;3.60;3.40;;;18.40;64.40;;;;;;6205764;28;20241;-82
2023/09/03 08:24:11;;;;;;;3.80;3.20;;;18.50;63.90;;;;;;6212687;28;20239;-82
2023/09/03 08:27:15;;;;;;;4.17;3.90;;;18.60;63.70;;;;;;6193228;28;20235;-83
2023/09/03 08:30:18;;;;;;;3.57;3.37;;;18.80;62.80;;;;;;6210249;28;20239;-84
2023/09/03 08:33:22;;;;;;;3.73;3.40;;;18.90;64.10;;;;;;6204534;28;20255;-82
2023/09/03 08:36:26;;;;;;;3.40;3.30;;;19.10;63.70;;;;;;6211217;28;20594;-83
2023/09/03 08:39:30;;;;;;;3.97;3.60;;;19.30;63.60;;;;;;6197885;28;20337;-84
2023/09/03 08:42:34;;;;;;;3.70;3.43;;;19.40;62.30;;;;;;6210001;28;20243;-83
2023/09/03 08:45:42;;;;;;;3.80;3.50;;;19.10;62.10;;;;;;6195647;28;20279;-84
2023/09/03 08:48:47;;;;;;;3.47;3.27;;;19.10;62.10;;;;;;6210349;28;20723;-84
2023/09/03 08:51:53;;;;;;;3.83;2.80;;;19.20;62.40;;;;;;6211251;28;20235;-82
2023/09/03 08:54:58;;;;;;;3.40;2.77;;;19.40;60.40;;;;;;6207129;28;20332;-81
2023/09/03 08:58:02;;;;;;;5.03;3.03;;;19.30;61.00;;;;;;6212504;28;20738;-84
2023/09/03 09:01:09;;;;;;;2.77;2.67;;;19.40;60.10;;;;;;6201966;28;20245;-84
2023/09/03 09:04:13;;;;;;;2.57;2.53;;;19.50;59.40;;;;;;6213982;28;20262;-84
2023/09/03 09:07:19;;;;;;;3.20;2.80;;;19.50;59.60;;;;;;6204662;28;20382;-84
2023/09/03 09:10:29;;;;;;;3.10;2.90;;;19.70;60.00;;;;;;6203044;28;20238;-84
2023/09/03 09:13:36;;;;;;;3.10;2.90;;;19.70;59.40;;;;;;6208834;28;20239;-81
2023/09/03 09:16:39;;;;;;;2.87;2.77;;;19.80;59.20;;;;;;6211258;28;20314;-82
2023/09/03 09:19:42;;;;;;;3.03;2.73;;;19.90;59.60;;;;;;6210080;28;20251;-80
2023/09/03 09:22:47;;;;;;;3.63;2.63;;;20.00;59.80;;;;;;6196215;28;20761;-80
2023/09/03 09:25:54;;;;;;;2.53;2.53;;;20.30;59.90;;;;;;6208572;28;20605;-83
2023/09/03 09:29:00;;;;;;;3.07;2.83;;;20.30;60.00;;;;;;6205336;28;20500;-83
2023/09/03 09:32:18;;;;;;;2.80;2.70;;;20.00;59.70;;;;;;6214936;28;20258;-84
2023/09/03 09:35:26;;;;;;;2.87;2.77;;;20.10;59.30;;;;;;6207839;28;20771;-83
2023/09/03 09:38:35;;;;;;;2.60;2.37;;;20.10;59.60;;;;;;6194357;28;20315;-83
2023/09/03 09:41:40;;;;;;;2.90;2.63;;;20.00;58.70;;;;;;6206438;28;20231;-82
2023/09/03 09:44:58;;;;;;;5.67;2.73;;;20.00;59.30;;;;;;6214004;28;20712;-81
2023/09/03 09:48:06;;;;;;;2.77;2.60;;;20.00;59.10;;;;;;6199959;28;21009;-82
2023/09/03 09:51:10;;;;;;;2.80;2.70;;;20.00;59.10;;;;;;6212293;28;20699;-80
2023/09/03 09:54:14;;;;;;;2.83;2.73;;;19.90;59.10;;;;;;6201325;28;20309;-80
2023/09/03 09:57:24;;;;;;;2.57;2.43;;;19.80;59.10;;;;;;6210396;28;20312;-80
2023/09/03 10:00:34;;;;;;;3.57;2.53;;;19.50;59.60;;;;;;6195572;28;20247;-79
2023/09/03 10:03:46;;;;;;;2.73;2.57;;;19.70;59.30;;;;;;6214959;28;20723;-79
2023/09/03 10:06:50;;;;;;;2.57;2.47;;;19.70;58.90;;;;;;6205482;28;20241;-78
2023/09/03 10:09:53;;;;;;;2.40;2.30;;;19.70;59.00;;;;;;6211160;28;20243;-80
2023/09/03 10:12:57;;;;;;;2.37;2.27;;;19.90;58.20;;;;;;6210299;28;20235;-78
2023/09/03 10:16:03;;;;;;;3.07;2.37;;;20.00;58.00;;;;;;6206910;28;20249;-84
2023/09/03 10:19:14;;;;;;;2.83;2.80;;;20.10;57.70;;;;;;6209519;28;20242;-81
2023/09/03 10:22:19;;;;;;;2.30;2.20;;;20.20;57.30;;;;;;6198907;28;20409;-78
2023/09/03 10:25:27;;;;;;;2.70;2.60;;;20.50;56.50;;;;;;6191633;28;20266;-79
2023/09/03 10:28:34;;;;;;;2.57;2.30;;;20.50;54.90;;;;;;6196183;28;20330;-79
2023/09/03 10:31:39;;;;;;;4.63;2.40;;;20.70;54.70;;;;;;6211970;28;20235;-78
2023/09/03 10:34:42;;;;;;;2.80;2.60;;;20.80;54.70;;;;;;6198419;28;20744;-79
2023/09/03 10:37:45;;;;;;;2.57;2.47;;;20.60;55.10;;;;;;6222575;28;20238;-78
2023/09/03 10:40:48;;;;;;;2.33;2.23;;;20.60;54.70;;;;;;6215271;28;20308;-79
2023/09/03 10:43:54;;;;;;;2.73;2.60;;;20.50;55.90;;;;;;6215339;28;20240;-78
2023/09/03 10:47:02;;;;;;;2.90;2.80;;;20.30;56.00;;;;;;6211508;28;20242;-79
2023/09/03 10:50:08;;;;;;;2.77;2.57;;;20.20;56.80;;;;;;6210632;28;20242;-78
2023/09/03 10:53:34;;;;;;;2.57;2.47;;;20.10;56.60;;;;;;6204122;28;20426;-77
2023/09/03 10:57:16;;;;;;;2.83;2.47;;;20.00;57.60;;;;;;6201860;28;20239;-79
2023/09/03 11:00:23;;;;;;;2.70;2.50;;;20.30;56.50;;;;;;6205325;28;20239;-77
2023/09/03 11:03:27;;;;;;;2.40;2.30;;;20.30;57.00;;;;;;6213099;28;20239;-79
2023/09/03 11:06:33;;;;;;;3.60;2.40;;;20.40;56.90;;;;;;6210361;28;20246;-79
2023/09/03 11:09:36;;;;;;;3.00;2.70;;;20.30;56.40;;;;;;6197293;28;20318;-79
2023/09/03 11:12:40;;;;;;;2.83;2.73;;;20.40;56.80;;;;;;6204595;28;20263;-79
2023/09/03 11:16:02;;;;;;;2.57;2.43;;;20.60;55.60;;;;;;6212055;28;20315;-79
2023/09/03 11:19:07;;;;;;;2.73;2.50;;;20.60;55.50;;;;;;6205186;28;20926;-79
2023/09/03 11:22:12;;;;;;;2.70;2.50;;;20.90;55.30;;;;;;6220610;28;20285;-77
2023/09/03 11:25:15;;;;;;;2.00;2.00;;;20.90;55.50;;;;;;6213843;28;20878;-77
2023/09/03 11:28:18;;;;;;;2.87;2.70;;;21.00;55.50;;;;;;6209535;28;20239;-77
2023/09/03 11:31:24;;;;;;;3.00;2.90;;;21.50;54.60;;;;;;6209260;28;20261;-77
2023/09/03 11:34:29;;;;;;;2.33;2.20;;;21.60;55.40;;;;;;6200855;28;20238;-78
2023/09/03 11:37:35;;;;;;;3.13;2.50;;;21.90;54.80;;;;;;6212857;28;20290;-77
2023/09/03 11:40:40;;;;;;;2.80;2.70;;;21.50;53.20;;;;;;6211765;28;20259;-78
2023/09/03 11:43:43;;;;;;;2.47;2.37;;;21.80;54.00;;;;;;6213683;28;20330;-77
2023/09/03 11:46:58;;;;;;;2.80;2.60;;;21.90;53.20;;;;;;6206717;28;20758;-78
2023/09/03 11:50:10;;;;;;;2.73;2.67;;;21.70;53.70;;;;;;6213879;28;20227;-78
2023/09/03 11:53:13;;;;;;;2.93;2.70;;;21.90;52.70;;;;;;6215235;28;20228;-79
2023/09/03 11:56:19;;;;;;;2.77;2.60;;;22.20;51.80;;;;;;6204170;28;20612;-79
2023/09/03 11:59:22;;;;;;;3.13;2.93;;;22.30;51.40;;;;;;6209496;28;20872;-80
2023/09/03 12:02:28;;;;;;;3.10;2.90;;;22.20;51.20;;;;;;6208803;28;20247;-78
2023/09/03 12:05:34;;;;;;;3.37;3.17;;;22.00;52.00;;;;;;6212671;28;20247;-79
2023/09/03 12:08:37;;;;;;;5.27;4.97;;;21.70;51.60;;;;;;6207117;28;20858;-79
2023/09/03 12:11:40;;;;;;;3.13;3.03;;;21.70;54.00;;;;;;6219642;28;20231;-79
2023/09/03 12:14:44;;;;;;;2.70;2.50;;;21.70;52.70;;;;;;6214000;28;20243;-79
2023/09/03 12:17:49;;;;;;;2.47;2.23;;;21.80;52.50;;;;;;6217635;28;20239;-80
2023/09/03 12:20:52;;;;;;;2.97;2.87;;;21.70;52.40;;;;;;6218878;28;20242;-81
2023/09/03 12:23:55;;;;;;;3.10;3.00;;;21.90;52.60;;;;;;6204883;28;20751;-79
2023/09/03 12:27:03;;;;;;;2.57;2.57;;;21.90;52.30;;;;;;6213354;28;20800;-79
2023/09/03 12:30:08;;;;;;;2.50;2.47;;;22.00;51.80;;;;;;6204219;28;20292;-80
2023/09/03 12:33:12;;;;;;;2.30;2.10;;;22.00;51.80;;;;;;6211003;28;20232;-80
2023/09/03 12:36:17;;;;;;;2.87;2.77;;;22.10;51.70;;;;;;6204121;28;20250;-82
2023/09/03 12:39:29;;;;;;;2.80;2.70;;;22.30;51.90;;;;;;6200320;28;20314;-82
2023/09/03 12:42:33;;;;;;;3.87;2.80;;;22.40;51.10;;;;;;6204455;28;20317;-80
2023/09/03 12:45:37;;;;;;;3.27;2.97;;;22.40;51.10;;;;;;6201203;28;20405;-80
2023/09/03 12:48:42;;;;;;;2.40;2.40;;;22.40;51.20;;;;;;6209838;28;20231;-80
2023/09/03 12:51:45;;;;;;;2.67;2.47;;;22.30;51.00;;;;;;6206422;28;20246;-80
2023/09/03 12:54:48;;;;;;;2.50;2.40;;;22.30;51.20;;;;;;6206150;28;20231;-79
2023/09/03 12:57:52;;;;;;;2.50;2.50;;;22.20;51.40;;;;;;6215360;28;20272;-81
2023/09/03 13:00:55;;;;;;;2.67;2.50;;;22.00;51.50;;;;;;6204776;28;20732;-79
2023/09/03 13:03:59;;;;;;;2.83;2.77;;;21.90;52.60;;;;;;6208204;28;20318;-82
2023/09/03 13:07:03;;;;;;;2.73;2.63;;;21.90;52.50;;;;;;6201247;28;20231;-78
2023/09/03 13:10:09;;;;;;;2.80;2.70;;;21.90;52.70;;;;;;6209801;28;20247;-78
2023/09/03 13:13:12;;;;;;;2.23;2.10;;;21.90;52.60;;;;;;6205827;28;20366;-81
2023/09/03 13:16:16;;;;;;;2.27;2.17;;;22.10;51.10;;;;;;6213615;28;20695;-81
2023/09/03 13:19:20;;;;;;;3.03;2.67;;;22.10;51.10;;;;;;6203040;28;20243;-80
2023/09/03 13:22:24;;;;;;;2.70;2.60;;;22.20;50.50;;;;;;6211978;28;20236;-81
2023/09/03 13:25:27;;;;;;;2.93;2.73;;;22.30;50.60;;;;;;6205585;28;20245;-78
2023/09/03 13:28:38;;;;;;;2.23;2.10;;;22.30;51.20;;;;;;6204309;28;20239;-76
2023/09/03 13:31:41;;;;;;;2.73;2.60;;;22.30;50.90;;;;;;6196909;28;20240;-76
2023/09/03 13:34:46;;;;;;;2.93;2.83;;;22.30;51.00;;;;;;6201152;28;20250;-81
2023/09/03 13:37:49;;;;;;;2.53;2.43;;;22.10;51.60;;;;;;6208135;28;20439;-79
2023/09/03 13:40:54;;;;;;;2.90;2.80;;;21.90;52.60;;;;;;6206449;28;20235;-80
2023/09/03 13:43:57;;;;;;;2.50;2.40;;;21.90;52.40;;;;;;6205057;28;20803;-82
2023/09/03 13:47:01;;;;;;;2.47;2.37;;;21.90;52.10;;;;;;6197053;28;20734;-81
2023/09/03 13:50:07;;;;;;;2.43;2.30;;;22.10;51.40;;;;;;6208393;28;20266;-81
2023/09/03 13:53:10;;;;;;;2.60;2.60;;;22.20;52.20;;;;;;6201838;28;20244;-80
2023/09/03 13:56:13;;;;;;;2.50;2.50;;;22.10;51.60;;;;;;6210620;28;20295;-81
2023/09/03 13:59:17;;;;;;;3.03;2.83;;;22.00;52.10;;;;;;6215770;28;20238;-81
2023/09/03 14:02:22;;;;;;;2.63;2.53;;;21.90;53.60;;;;;;6202233;28;20877;-80
2023/09/03 14:05:27;;;;;;;2.80;2.60;;;21.90;52.00;;;;;;6207414;28;20232;-79
2023/09/03 14:08:32;;;;;;;2.47;2.47;;;21.90;51.50;;;;;;6188515;28;20252;-83
2023/09/03 14:11:37;;;;;;;2.77;2.67;;;21.90;51.90;;;;;;6207277;28;20250;-79
2023/09/03 14:14:40;;;;;;;2.50;2.40;;;22.00;52.30;;;;;;6207686;28;20243;-79
2023/09/03 14:17:43;;;;;;;2.80;2.60;;;22.10;52.00;;;;;;6212152;28;20278;-79
2023/09/03 14:20:48;;;;;;;2.60;2.50;;;22.10;51.90;;;;;;6214463;28;20254;-80
2023/09/03 14:23:51;;;;;;;2.13;2.03;;;22.10;51.40;;;;;;6211508;28;20235;-78
2023/09/03 14:26:54;;;;;;;2.30;2.20;;;21.90;51.60;;;;;;6213353;28;20235;-80
2023/09/03 14:29:59;;;;;;;2.30;2.20;;;21.80;51.60;;;;;;6216060;28;20239;-79
2023/09/03 14:33:03;;;;;;;2.57;2.47;;;21.70;51.40;;;;;;6215268;28;20248;-79
2023/09/03 14:36:08;;;;;;;2.50;2.40;;;21.60;51.60;;;;;;6197128;28;20232;-78
2023/09/03 14:39:12;;;;;;;2.50;2.30;;;21.50;51.80;;;;;;6210698;28;20242;-78
2023/09/03 14:42:15;;;;;;;2.13;2.13;;;21.50;51.60;;;;;;6216553;28;20247;-76
2023/09/03 14:45:18;;;;;;;2.23;2.13;;;21.40;52.00;;;;;;6213114;28;20388;-77
2023/09/03 14:48:26;;;;;;;2.53;2.43;;;21.50;51.60;;;;;;6202701;28;20856;-77
2023/09/03 14:51:31;;;;;;;2.70;2.70;;;21.50;51.70;;;;;;6218748;28;20238;-79
2023/09/03 14:54:35;;;;;;;2.30;2.20;;;21.50;51.80;;;;;;6214197;28;20301;-79
2023/09/03 14:57:38;;;;;;;2.73;2.53;;;21.50;51.50;;;;;;6214067;28;20333;-77
2023/09/03 15:00:41;;;;;;;4.33;2.47;;;21.50;51.50;;;;;;6207846;28;20247;-79
2023/09/03 15:03:44;;;;;;;2.13;2.13;;;21.50;51.70;;;;;;6218097;28;20255;-77
2023/09/03 15:06:49;;;;;;;2.90;2.80;;;21.70;51.40;;;;;;6211578;28;20236;-78
2023/09/03 15:09:53;;;;;;;2.90;2.67;;;21.70;51.00;;;;;;6209931;28;20231;-79
2023/09/03 15:12:56;;;;;;;2.90;2.37;;;21.70;51.30;;;;;;6209784;28;20235;-78
2023/09/03 15:16:03;;;;;;;2.87;2.77;;;21.50;50.90;;;;;;6212805;28;20310;-77
2023/09/03 15:19:06;;;;;;;2.40;2.30;;;21.50;50.80;;;;;;6212458;28;20241;-78
2023/09/03 15:22:11;;;;;;;2.50;2.40;;;21.50;51.90;;;;;;6215530;28;20365;-81
2023/09/03 15:25:14;;;;;;;2.63;2.43;;;21.50;51.20;;;;;;6215349;28;20623;-83
2023/09/03 15:28:17;;;;;;;2.10;2.10;;;21.50;51.70;;;;;;6209928;28;20251;-84
2023/09/03 15:31:20;;;;;;;2.93;2.70;;;21.60;51.10;;;;;;6211463;28;20310;-80
2023/09/03 15:34:23;;;;;;;2.60;2.40;;;21.70;51.30;;;;;;6206798;28;20253;-78
2023/09/03 15:37:28;;;;;;;2.43;2.27;;;21.50;51.80;;;;;;6209571;28;20235;-82
2023/09/03 15:40:31;;;;;;;5.00;4.80;;;21.40;51.60;;;;;;6207433;28;20742;-79
2023/09/03 15:43:34;;;;;;;8.20;7.53;;;21.40;51.90;;;;;;6210046;28;20236;-79
2023/09/03 15:46:37;;;;;;;5.30;5.10;;;21.40;51.70;;;;;;6203162;28;20357;-78
2023/09/03 15:49:40;;;;;;;115.83;104.77;;;21.30;51.80;;;;;;6219953;28;20247;-80
2023/09/03 15:52:46;;;;;;;4.77;4.53;;;21.10;52.50;;;;;;6213816;28;20450;-76
2023/09/03 15:55:49;;;;;;;3.07;2.87;;;21.10;52.30;;;;;;6210706;28;20330;-80
2023/09/03 15:58:52;;;;;;;6.50;6.03;;;21.10;52.50;;;;;;6211244;28;20750;-75